Time;durP1;ratioP1;P1;durP2;ratioP2;P2;SDS_P1;SDS_P2;PMS_P1;PMS_P2;Temp;Humidity;BMP_temperature;BMP_pressure;BME280_temperature;BME280_humidity;BME280_pressure;Samples;Min_cycle;Max_cycle;Signal;HPM_P1;HPM_P2
2021/05/30 00:00:47;;;;;;;7.07;5.90;;;9.00;99.90;;;;;;5069942;28;20467;-64
2021/05/30 00:03:13;;;;;;;7.93;5.50;;;8.90;99.90;;;;;;5070957;28;20443;-65
2021/05/30 00:05:40;;;;;;;7.03;6.13;;;8.90;99.90;;;;;;5070131;28;20475;-65
2021/05/30 00:08:07;;;;;;;6.87;6.20;;;8.80;99.90;;;;;;5070427;28;20439;-66
2021/05/30 00:10:33;;;;;;;9.87;8.87;;;8.70;99.90;;;;;;5070183;28;20604;-66
2021/05/30 00:13:00;;;;;;;9.73;7.67;;;8.50;99.90;;;;;;5070297;28;20532;-65
2021/05/30 00:15:26;;;;;;;8.83;6.60;;;8.40;99.90;;;;;;5070274;28;20515;-66
2021/05/30 00:17:53;;;;;;;7.00;6.30;;;8.40;99.90;;;;;;5070220;28;20435;-64
2021/05/30 00:20:19;;;;;;;7.43;6.10;;;8.40;99.90;;;;;;5069762;28;20514;-64
2021/05/30 00:22:46;;;;;;;8.23;6.50;;;8.40;99.90;;;;;;5070019;28;20816;-65
2021/05/30 00:25:14;;;;;;;7.00;6.20;;;8.40;99.90;;;;;;5069974;28;20484;-66
2021/05/30 00:27:40;;;;;;;8.27;6.40;;;8.40;99.90;;;;;;5070336;28;20462;-65
2021/05/30 00:30:08;;;;;;;9.70;7.10;;;8.40;99.90;;;;;;5069585;28;21213;-65
2021/05/30 00:32:34;;;;;;;9.33;6.80;;;8.40;99.90;;;;;;5069887;28;20894;-65
2021/05/30 00:35:01;;;;;;;10.03;7.53;;;8.40;99.90;;;;;;5069966;28;20439;-65
2021/05/30 00:37:27;;;;;;;12.47;9.00;;;8.40;99.90;;;;;;5070386;28;20447;-65
2021/05/30 00:39:54;;;;;;;10.03;7.17;;;8.30;99.90;;;;;;5069640;28;20447;-65
2021/05/30 00:42:21;;;;;;;7.20;6.50;;;8.10;99.90;;;;;;5069844;28;20457;-65
2021/05/30 00:44:47;;;;;;;8.13;7.30;;;8.00;99.90;;;;;;5069831;28;20478;-64
2021/05/30 00:47:14;;;;;;;7.60;6.77;;;7.90;99.90;;;;;;5069742;28;20447;-64
2021/05/30 00:49:40;;;;;;;8.60;7.30;;;7.90;99.90;;;;;;5069603;28;20453;-65
2021/05/30 00:52:08;;;;;;;10.90;9.17;;;8.00;99.90;;;;;;5070450;28;20837;-65
2021/05/30 00:54:36;;;;;;;8.47;7.57;;;7.90;99.90;;;;;;5070440;28;20546;-65
2021/05/30 00:57:06;;;;;;;10.10;7.60;;;7.90;99.90;;;;;;5070339;28;20435;-65
2021/05/30 00:59:33;;;;;;;8.83;7.83;;;7.90;99.90;;;;;;5069481;28;20923;-65
2021/05/30 01:01:59;;;;;;;9.30;8.30;;;7.70;99.90;;;;;;5070252;28;20471;-65
2021/05/30 01:04:26;;;;;;;9.10;8.20;;;7.70;99.90;;;;;;5073599;28;20457;-64
2021/05/30 01:06:55;;;;;;;8.77;7.70;;;7.70;99.90;;;;;;5073680;28;20503;-64
2021/05/30 01:09:23;;;;;;;8.43;6.67;;;7.70;99.90;;;;;;5073241;28;20831;-65
2021/05/30 01:11:50;;;;;;;8.27;6.97;;;7.70;99.90;;;;;;5073538;28;20467;-67
2021/05/30 01:14:16;;;;;;;7.63;6.80;;;7.70;99.90;;;;;;5073435;28;20443;-65
2021/05/30 01:16:44;;;;;;;8.80;7.90;;;7.60;99.90;;;;;;5073105;28;20437;-65
2021/05/30 01:19:12;;;;;;;8.70;7.80;;;7.60;99.90;;;;;;5073070;28;20944;-65
2021/05/30 01:21:39;;;;;;;9.07;7.10;;;7.50;99.90;;;;;;5072977;28;20976;-64
2021/05/30 01:24:07;;;;;;;8.53;7.73;;;7.70;99.90;;;;;;5073299;28;20948;-66
2021/05/30 01:26:33;;;;;;;8.30;7.20;;;7.60;99.90;;;;;;5073107;28;21007;-65
2021/05/30 01:28:59;;;;;;;8.27;7.03;;;7.60;99.90;;;;;;5073079;28;20447;-65
2021/05/30 01:31:26;;;;;;;8.73;6.17;;;7.60;99.90;;;;;;5073308;28;20466;-66
2021/05/30 01:33:52;;;;;;;8.03;7.23;;;7.60;99.90;;;;;;5073403;28;20497;-65
2021/05/30 01:36:19;;;;;;;8.07;7.27;;;7.50;99.90;;;;;;5073473;28;20454;-64
2021/05/30 01:38:45;;;;;;;8.63;7.30;;;7.50;99.90;;;;;;5073244;28;20451;-65
2021/05/30 01:41:12;;;;;;;8.80;7.90;;;7.50;99.90;;;;;;5072543;28;21023;-65
2021/05/30 01:43:39;;;;;;;9.57;7.80;;;7.60;99.90;;;;;;5072862;28;21126;-66
2021/05/30 01:46:05;;;;;;;9.17;7.17;;;7.60;99.90;;;;;;5073032;28;20490;-65
2021/05/30 01:48:31;;;;;;;7.40;6.47;;;7.70;99.90;;;;;;5073040;28;20457;-64
2021/05/30 01:50:58;;;;;;;10.47;7.00;;;7.70;99.90;;;;;;5072407;28;20467;-66
2021/05/30 01:53:32;;;;;;;7.93;7.13;;;7.80;99.90;;;;;;5072729;28;20443;-66
2021/05/30 01:58:44;;;;;;;11.30;6.27;;;7.90;99.90;;;;;;5072837;28;20469;-65
2021/05/30 02:01:15;;;;;;;9.50;8.03;;;7.90;99.90;;;;;;5072394;28;20494;-65
2021/05/30 02:03:43;;;;;;;8.40;7.50;;;7.90;99.90;;;;;;5072567;28;20443;-65
2021/05/30 02:06:10;;;;;;;8.00;7.20;;;7.80;99.90;;;;;;5072554;28;20483;-66
2021/05/30 02:08:39;;;;;;;9.93;7.50;;;7.80;99.90;;;;;;5072365;28;20451;-65
2021/05/30 02:11:09;;;;;;;12.23;8.50;;;7.80;99.90;;;;;;5071976;28;20467;-65
2021/05/30 02:13:35;;;;;;;8.43;7.60;;;7.70;99.90;;;;;;5072036;28;20447;-66
2021/05/30 02:16:04;;;;;;;9.17;7.70;;;7.60;99.90;;;;;;5072302;28;20534;-66
2021/05/30 02:18:31;;;;;;;8.53;7.73;;;7.60;99.90;;;;;;5072220;28;20447;-65
2021/05/30 02:20:57;;;;;;;9.27;8.27;;;7.60;99.90;;;;;;5071888;28;20473;-65
2021/05/30 02:23:24;;;;;;;9.87;7.97;;;7.40;99.90;;;;;;5071944;28;20526;-66
2021/05/30 02:25:50;;;;;;;9.50;7.63;;;7.30;99.90;;;;;;5072097;28;20527;-65
2021/05/30 02:28:16;;;;;;;10.40;7.73;;;7.30;99.90;;;;;;5071793;28;21006;-66
2021/05/30 02:30:43;;;;;;;10.13;7.33;;;7.30;99.90;;;;;;5071676;28;20470;-65
2021/05/30 02:33:10;;;;;;;12.00;8.63;;;7.20;99.90;;;;;;5072043;28;20461;-66
2021/05/30 02:35:36;;;;;;;8.50;7.00;;;7.20;99.90;;;;;;5071920;28;20540;-65
2021/05/30 02:38:04;;;;;;;8.43;7.37;;;7.10;99.90;;;;;;5071741;28;20883;-65
2021/05/30 02:40:31;;;;;;;10.43;7.20;;;7.10;99.90;;;;;;5071619;28;20475;-65
2021/05/30 02:42:57;;;;;;;9.33;7.27;;;7.20;99.90;;;;;;5071937;28;20526;-66
2021/05/30 02:45:23;;;;;;;8.30;7.50;;;7.20;99.90;;;;;;5071987;28;20489;-65
2021/05/30 02:47:50;;;;;;;8.37;6.97;;;7.20;99.90;;;;;;5071853;28;20451;-65
2021/05/30 02:50:17;;;;;;;8.70;7.27;;;7.20;99.90;;;;;;5070970;28;20463;-65
2021/05/30 02:52:43;;;;;;;8.07;7.27;;;7.20;99.90;;;;;;5071847;28;20449;-65
2021/05/30 02:55:10;;;;;;;8.13;7.23;;;7.20;99.90;;;;;;5071550;28;20538;-65
2021/05/30 02:57:37;;;;;;;7.80;6.70;;;7.10;99.90;;;;;;5071492;28;20451;-65
2021/05/30 03:00:05;;;;;;;7.97;7.07;;;7.20;99.90;;;;;;5071092;28;20449;-65
2021/05/30 03:02:32;;;;;;;7.80;6.10;;;7.30;99.90;;;;;;5071434;28;20504;-66
2021/05/30 03:04:58;;;;;;;10.10;6.57;;;7.30;99.90;;;;;;5071250;28;21007;-66
2021/05/30 03:07:25;;;;;;;8.40;7.20;;;7.40;99.90;;;;;;5071508;28;20459;-65
2021/05/30 03:09:53;;;;;;;7.27;6.60;;;7.30;99.90;;;;;;5071017;28;20534;-64
2021/05/30 03:12:19;;;;;;;9.03;7.40;;;7.30;99.90;;;;;;5071283;28;20454;-64
2021/05/30 03:14:45;;;;;;;8.33;7.00;;;7.30;99.90;;;;;;5071136;28;20452;-64
2021/05/30 03:17:12;;;;;;;8.57;6.60;;;7.30;99.90;;;;;;5071149;28;20533;-65
2021/05/30 03:19:38;;;;;;;7.40;6.60;;;7.30;99.90;;;;;;5070779;28;21002;-65
2021/05/30 03:22:05;;;;;;;7.70;6.80;;;7.30;99.90;;;;;;5071239;28;20492;-65
2021/05/30 03:24:32;;;;;;;7.43;6.60;;;7.10;99.90;;;;;;5070868;28;20447;-65
2021/05/30 03:26:58;;;;;;;8.53;6.90;;;7.10;99.90;;;;;;5071210;28;20445;-65
2021/05/30 03:29:25;;;;;;;8.03;7.23;;;7.00;99.90;;;;;;5070842;28;20658;-66
2021/05/30 03:31:51;;;;;;;8.77;7.30;;;7.00;99.90;;;;;;5070730;28;20539;-65
2021/05/30 03:34:17;;;;;;;10.30;6.50;;;6.90;99.90;;;;;;5070842;28;20443;-65
2021/05/30 03:36:47;;;;;;;8.70;6.80;;;6.90;99.90;;;;;;5071092;28;20446;-65
2021/05/30 03:39:13;;;;;;;9.70;6.97;;;6.90;99.90;;;;;;5070181;28;20449;-65
2021/05/30 03:41:42;;;;;;;9.63;6.90;;;6.90;99.90;;;;;;5070626;28;20498;-65
2021/05/30 03:44:10;;;;;;;9.30;7.37;;;6.90;99.90;;;;;;5070538;28;20544;-65
2021/05/30 03:46:37;;;;;;;8.63;7.73;;;6.90;99.90;;;;;;5070785;28;20483;-65
2021/05/30 03:49:04;;;;;;;8.23;7.23;;;6.90;99.90;;;;;;5071298;28;20530;-70
2021/05/30 03:51:30;;;;;;;7.57;6.77;;;6.90;99.90;;;;;;5070801;28;20600;-65
2021/05/30 03:53:56;;;;;;;25.17;16.40;;;6.90;99.90;;;;;;5070422;28;21131;-64
2021/05/30 03:56:23;;;;;;;22.40;16.53;;;6.80;99.90;;;;;;5070516;28;20801;-65
2021/05/30 03:58:51;;;;;;;15.60;10.57;;;6.90;99.90;;;;;;5070412;28;20447;-65
2021/05/30 04:01:17;;;;;;;9.60;8.27;;;6.90;99.90;;;;;;5069871;28;20471;-64
2021/05/30 04:03:45;;;;;;;12.30;7.70;;;6.90;99.90;;;;;;5070291;28;20455;-65
2021/05/30 04:06:12;;;;;;;8.17;7.20;;;6.90;99.90;;;;;;5070345;28;20489;-65
2021/05/30 04:08:38;;;;;;;10.43;8.20;;;6.90;99.90;;;;;;5070414;28;20538;-65
2021/05/30 04:11:05;;;;;;;9.43;8.47;;;7.10;99.90;;;;;;5070100;28;20473;-65
2021/05/30 04:13:31;;;;;;;9.33;8.23;;;7.20;99.90;;;;;;5070357;28;20958;-66
2021/05/30 04:15:58;;;;;;;9.07;8.00;;;7.20;99.90;;;;;;5070049;28;20530;-66
2021/05/30 04:18:24;;;;;;;7.63;6.83;;;7.20;99.90;;;;;;5070456;28;21034;-65
2021/05/30 04:20:51;;;;;;;9.20;7.20;;;7.30;99.90;;;;;;5069751;28;20463;-65
2021/05/30 04:23:18;;;;;;;11.60;8.13;;;7.30;99.90;;;;;;5070025;28;20566;-64
2021/05/30 04:25:44;;;;;;;8.57;6.87;;;7.40;99.90;;;;;;5069784;28;20889;-65
2021/05/30 04:28:10;;;;;;;8.57;7.20;;;7.40;99.90;;;;;;5070669;28;20525;-64
2021/05/30 04:30:37;;;;;;;7.77;7.07;;;7.40;99.90;;;;;;5069641;28;20470;-65
2021/05/30 04:33:05;;;;;;;8.50;6.83;;;7.40;99.90;;;;;;5070218;28;20534;-65
2021/05/30 04:35:31;;;;;;;8.50;6.80;;;7.60;99.90;;;;;;5070275;28;20477;-65
2021/05/30 04:37:57;;;;;;;8.80;7.23;;;7.60;99.90;;;;;;5074177;28;20454;-64
2021/05/30 04:40:25;;;;;;;10.90;6.93;;;7.70;99.90;;;;;;5073676;28;20883;-67
2021/05/30 04:42:51;;;;;;;8.37;7.30;;;7.90;99.90;;;;;;5073781;28;20477;-64
2021/05/30 04:45:19;;;;;;;8.23;7.40;;;7.90;99.90;;;;;;5073619;28;20479;-64
2021/05/30 04:47:45;;;;;;;7.00;6.30;;;7.90;99.90;;;;;;5074139;28;20450;-65
2021/05/30 04:50:13;;;;;;;9.20;7.07;;;8.00;99.90;;;;;;5073402;28;20475;-66
2021/05/30 04:52:40;;;;;;;7.10;6.43;;;8.10;99.90;;;;;;5073770;28;20535;-64
2021/05/30 04:55:10;;;;;;;10.10;7.40;;;8.10;99.90;;;;;;5073663;28;20533;-66
2021/05/30 04:57:37;;;;;;;7.97;6.80;;;8.20;99.90;;;;;;5073824;28;20809;-65
2021/05/30 05:00:08;;;;;;;7.00;6.30;;;8.30;99.90;;;;;;5073494;28;20479;-65
2021/05/30 05:02:35;;;;;;;9.70;7.17;;;8.30;99.90;;;;;;5056413;28;20820;-65
2021/05/30 05:05:02;;;;;;;8.63;7.73;;;8.40;99.90;;;;;;5073586;28;20478;-66
2021/05/30 05:07:29;;;;;;;8.27;7.37;;;8.50;99.90;;;;;;5073393;28;20476;-64
2021/05/30 05:09:55;;;;;;;8.30;7.50;;;8.50;99.90;;;;;;5072946;28;20451;-65
2021/05/30 05:12:22;;;;;;;8.60;7.47;;;8.60;99.90;;;;;;5073701;28;20812;-66
2021/05/30 05:14:48;;;;;;;8.60;7.70;;;8.80;99.90;;;;;;5073987;28;20579;-65
2021/05/30 05:17:15;;;;;;;7.80;7.00;;;8.90;99.90;;;;;;5073666;28;20533;-66
2021/05/30 05:19:41;;;;;;;7.50;6.70;;;9.00;99.90;;;;;;5073044;28;20455;-65
2021/05/30 05:22:07;;;;;;;9.07;6.73;;;9.00;99.90;;;;;;5073255;28;21013;-65
2021/05/30 05:24:35;;;;;;;8.87;7.97;;;9.10;99.90;;;;;;5073287;28;20454;-65
2021/05/30 05:27:01;;;;;;;9.40;8.60;;;9.20;99.90;;;;;;5073300;28;20855;-66
2021/05/30 05:29:27;;;;;;;8.30;7.40;;;9.30;99.90;;;;;;5072986;28;20537;-65
2021/05/30 05:31:54;;;;;;;7.20;6.50;;;9.30;99.90;;;;;;5073062;28;20554;-66
2021/05/30 05:34:20;;;;;;;7.20;6.50;;;9.40;99.90;;;;;;5073207;28;20530;-65
2021/05/30 05:36:47;;;;;;;6.90;6.00;;;9.50;99.90;;;;;;5073027;28;20492;-66
2021/05/30 05:39:13;;;;;;;8.67;5.83;;;9.60;99.90;;;;;;5072317;28;20561;-65
2021/05/30 05:41:41;;;;;;;6.47;5.80;;;9.70;99.90;;;;;;5072492;28;21040;-65
2021/05/30 05:44:08;;;;;;;8.03;6.57;;;9.80;99.90;;;;;;5072538;28;20485;-65
2021/05/30 05:46:34;;;;;;;7.40;5.40;;;10.00;99.90;;;;;;5072433;28;20474;-65
2021/05/30 05:49:00;;;;;;;5.47;4.80;;;10.20;99.90;;;;;;5071486;28;21023;-65
2021/05/30 05:51:27;;;;;;;6.60;6.00;;;10.40;99.90;;;;;;5072481;28;20526;-66
2021/05/30 05:53:53;;;;;;;7.00;5.13;;;10.60;99.90;;;;;;5072076;28;20446;-66
2021/05/30 05:56:19;;;;;;;5.77;5.17;;;10.60;99.90;;;;;;5072313;28;20908;-65
2021/05/30 05:58:47;;;;;;;6.53;5.00;;;10.70;99.90;;;;;;5072096;28;20522;-65
2021/05/30 06:01:13;;;;;;;5.53;4.93;;;10.70;99.90;;;;;;5071948;28;20477;-66
2021/05/30 06:03:39;;;;;;;5.73;5.13;;;10.80;99.90;;;;;;5072082;28;20443;-66
2021/05/30 06:06:06;;;;;;;5.50;5.00;;;10.90;99.90;;;;;;5071834;28;20478;-65
2021/05/30 06:08:32;;;;;;;5.60;5.10;;;11.00;99.90;;;;;;5072032;28;20541;-65
2021/05/30 06:10:59;;;;;;;8.33;6.07;;;11.10;99.90;;;;;;5071599;28;20475;-64
2021/05/30 06:13:26;;;;;;;6.87;5.70;;;11.20;99.90;;;;;;5071708;28;20546;-65
2021/05/30 06:15:53;;;;;;;7.17;5.17;;;11.30;99.90;;;;;;5071725;28;20474;-64
2021/05/30 06:18:22;;;;;;;6.50;5.90;;;11.40;99.90;;;;;;5071580;28;20978;-65
2021/05/30 06:20:49;;;;;;;7.87;5.87;;;11.40;99.90;;;;;;5070987;28;20463;-65
2021/05/30 06:23:15;;;;;;;6.10;5.20;;;11.60;99.90;;;;;;5071273;28;20585;-65
2021/05/30 06:25:43;;;;;;;8.00;5.60;;;11.60;99.90;;;;;;5071641;28;20530;-65
2021/05/30 06:28:09;;;;;;;6.57;5.87;;;11.60;99.90;;;;;;5071513;28;20531;-65
2021/05/30 06:30:38;;;;;;;6.67;5.97;;;11.80;99.90;;;;;;5071123;28;20499;-65
2021/05/30 06:33:06;;;;;;;8.57;6.47;;;12.00;99.90;;;;;;5071494;28;20447;-65
2021/05/30 06:35:33;;;;;;;6.97;5.47;;;12.10;99.90;;;;;;5071265;28;20454;-66
2021/05/30 06:38:01;;;;;;;9.60;6.10;;;12.20;99.90;;;;;;5071660;28;20458;-66
2021/05/30 06:40:27;;;;;;;6.67;6.00;;;12.20;99.90;;;;;;5070951;28;20475;-65
2021/05/30 06:42:54;;;;;;;6.23;5.30;;;12.40;99.90;;;;;;5071402;28;20453;-65
2021/05/30 06:45:20;;;;;;;7.97;6.57;;;12.50;99.90;;;;;;5071236;28;20478;-65
2021/05/30 06:47:46;;;;;;;6.47;5.40;;;12.60;99.90;;;;;;5071205;28;20447;-65
2021/05/30 06:50:14;;;;;;;5.87;5.13;;;12.70;99.90;;;;;;5070948;28;20483;-65
2021/05/30 06:52:41;;;;;;;7.27;5.90;;;12.80;99.90;;;;;;5070919;28;20451;-65
2021/05/30 06:55:08;;;;;;;6.73;6.00;;;12.90;99.90;;;;;;5071026;28;20957;-66
2021/05/30 06:57:35;;;;;;;6.73;6.07;;;13.10;99.90;;;;;;5071079;28;20443;-66
2021/05/30 07:00:01;;;;;;;5.50;5.00;;;13.20;99.90;;;;;;5069579;28;20505;-65
2021/05/30 07:02:27;;;;;;;6.10;5.50;;;13.30;99.90;;;;;;5070643;28;20594;-66
2021/05/30 07:04:54;;;;;;;8.40;5.87;;;13.40;99.90;;;;;;5070969;28;20453;-66
2021/05/30 07:07:21;;;;;;;7.23;5.30;;;13.60;99.90;;;;;;5071272;28;20537;-66
2021/05/30 07:09:47;;;;;;;7.47;6.07;;;13.80;99.90;;;;;;5070854;28;20435;-66
2021/05/30 07:12:13;;;;;;;5.83;5.23;;;13.90;99.90;;;;;;5071256;28;20451;-65
2021/05/30 07:14:40;;;;;;;6.67;5.70;;;14.00;99.90;;;;;;5070995;28;20454;-65
2021/05/30 07:17:06;;;;;;;6.73;5.47;;;14.20;99.90;;;;;;5071010;28;20431;-66
2021/05/30 07:19:33;;;;;;;6.53;5.27;;;14.30;99.90;;;;;;5070470;28;20538;-66
2021/05/30 07:21:59;;;;;;;5.63;5.03;;;14.40;99.90;;;;;;5070766;28;20902;-66
2021/05/30 07:24:26;;;;;;;5.53;4.93;;;14.50;99.90;;;;;;5070839;28;20465;-66
2021/05/30 07:26:53;;;;;;;6.30;5.47;;;14.60;99.90;;;;;;5071874;28;20570;-66
2021/05/30 07:29:19;;;;;;;5.93;5.03;;;14.80;99.90;;;;;;5071727;28;20439;-66
2021/05/30 07:31:47;;;;;;;6.30;5.67;;;14.90;99.90;;;;;;5070164;28;20467;-66
2021/05/30 07:34:14;;;;;;;6.00;5.13;;;15.00;99.90;;;;;;5070198;28;20538;-66
2021/05/30 07:36:40;;;;;;;4.70;4.20;;;15.10;99.90;;;;;;5069931;28;21134;-65
2021/05/30 07:39:07;;;;;;;5.23;4.70;;;15.20;99.90;;;;;;5069790;28;20447;-65
2021/05/30 07:41:34;;;;;;;6.20;4.50;;;15.30;99.90;;;;;;5070034;28;20891;-65
2021/05/30 07:44:01;;;;;;;5.70;4.60;;;15.40;99.90;;;;;;5070072;28;20509;-64
2021/05/30 07:46:27;;;;;;;4.50;4.03;;;15.60;99.90;;;;;;5069727;28;20856;-66
2021/05/30 07:48:54;;;;;;;6.00;4.17;;;15.80;99.90;;;;;;5069951;28;20489;-65
2021/05/30 07:51:20;;;;;;;4.53;4.03;;;16.00;99.90;;;;;;5069720;28;20493;-66
2021/05/30 07:53:46;;;;;;;5.70;4.10;;;16.20;99.90;;;;;;5069944;28;20451;-66
2021/05/30 07:56:13;;;;;;;5.00;4.40;;;16.30;99.90;;;;;;5069877;28;20526;-65
2021/05/30 07:58:40;;;;;;;4.10;3.70;;;16.50;99.90;;;;;;5069745;28;20447;-66
2021/05/30 08:01:07;;;;;;;5.07;4.07;;;16.60;99.90;;;;;;5069589;28;20445;-66
2021/05/30 08:03:33;;;;;;;6.07;3.90;;;16.70;99.90;;;;;;5070159;28;20439;-65
2021/05/30 08:05:59;;;;;;;4.67;3.80;;;16.80;99.90;;;;;;5069820;28;20479;-66
2021/05/30 08:08:26;;;;;;;4.80;3.47;;;16.90;99.90;;;;;;5069782;28;20511;-66
2021/05/30 08:10:52;;;;;;;5.23;4.00;;;17.10;99.90;;;;;;5069019;28;20554;-66
2021/05/30 08:13:19;;;;;;;3.93;3.40;;;17.20;99.90;;;;;;5069911;28;20447;-66
2021/05/30 08:15:46;;;;;;;4.60;2.90;;;17.30;99.20;;;;;;5070414;28;20447;-65
2021/05/30 08:18:13;;;;;;;4.13;3.73;;;17.50;99.00;;;;;;5070109;28;20933;-65
2021/05/30 08:20:39;;;;;;;4.60;3.10;;;17.50;98.10;;;;;;5069905;28;20909;-67
2021/05/30 08:23:05;;;;;;;6.47;3.73;;;17.60;97.90;;;;;;5070067;28;20912;-66
2021/05/30 08:25:32;;;;;;;4.73;3.47;;;17.60;96.00;;;;;;5070071;28;20501;-66
2021/05/30 08:27:58;;;;;;;4.60;3.37;;;17.60;97.20;;;;;;5069768;28;20443;-66
2021/05/30 08:30:25;;;;;;;4.10;3.53;;;17.70;98.10;;;;;;5069539;28;20469;-65
2021/05/30 08:32:53;;;;;;;5.70;4.50;;;17.80;94.90;;;;;;5070170;28;20446;-66
2021/05/30 08:35:19;;;;;;;5.73;4.00;;;17.80;96.00;;;;;;5069921;28;20450;-66
2021/05/30 08:37:45;;;;;;;5.10;3.40;;;18.00;95.90;;;;;;5069410;28;20454;-65
2021/05/30 08:40:17;;;;;;;6.63;3.67;;;18.20;96.30;;;;;;5069161;28;20920;-65
2021/05/30 08:42:45;;;;;;;4.57;3.80;;;18.20;94.70;;;;;;5070029;28;20451;-65
2021/05/30 08:45:12;;;;;;;3.63;3.33;;;18.00;95.30;;;;;;5069865;28;20447;-66
2021/05/30 08:47:38;;;;;;;6.60;4.37;;;18.10;95.80;;;;;;5069734;28;20833;-64
2021/05/30 08:50:06;;;;;;;4.47;3.77;;;18.00;96.60;;;;;;5069346;28;20949;-65
2021/05/30 08:52:33;;;;;;;5.17;3.97;;;17.90;96.70;;;;;;5069726;28;20504;-65
2021/05/30 08:55:00;;;;;;;4.27;3.70;;;17.90;95.00;;;;;;5069548;28;20476;-65
2021/05/30 08:57:26;;;;;;;4.80;4.23;;;17.80;95.40;;;;;;5069771;28;20530;-64
2021/05/30 08:59:55;;;;;;;5.23;3.93;;;17.80;96.80;;;;;;5069436;28;20530;-65
2021/05/30 09:02:21;;;;;;;5.53;3.20;;;17.80;98.00;;;;;;5069624;28;20538;-65
2021/05/30 09:04:53;;;;;;;4.23;3.83;;;18.10;97.20;;;;;;5069542;28;20538;-66
2021/05/30 09:07:36;;;;;;;4.17;3.77;;;18.30;94.40;;;;;;5069405;28;20482;-64
2021/05/30 09:10:06;;;;;;;4.50;3.50;;;18.50;94.70;;;;;;5069039;28;20504;-66
2021/05/30 09:12:36;;;;;;;3.90;3.30;;;18.70;94.90;;;;;;5069527;28;20826;-65
2021/05/30 09:15:07;;;;;;;4.73;3.63;;;19.00;95.50;;;;;;5069810;28;20447;-66
2021/05/30 09:17:33;;;;;;;5.67;4.27;;;19.40;95.00;;;;;;5069487;28;21010;-64
2021/05/30 09:20:00;;;;;;;3.60;3.00;;;19.50;92.30;;;;;;5069007;28;20451;-65
2021/05/30 09:22:31;;;;;;;4.00;3.20;;;19.00;89.10;;;;;;5069627;28;20451;-65
2021/05/30 09:25:19;;;;;;;3.83;2.80;;;18.40;89.30;;;;;;5073349;28;20451;-65
2021/05/30 09:27:48;;;;;;;3.90;2.87;;;18.10;91.30;;;;;;5073509;28;20472;-65
2021/05/30 09:30:32;;;;;;;3.87;2.20;;;18.30;91.60;;;;;;5072646;28;20466;-65
2021/05/30 09:33:13;;;;;;;5.17;3.50;;;18.70;90.20;;;;;;5071085;28;20542;-65
2021/05/30 09:35:55;;;;;;;3.27;2.80;;;19.00;86.00;;;;;;5072907;28;21014;-65
2021/05/30 09:38:28;;;;;;;5.53;3.17;;;19.30;90.90;;;;;;5073191;28;20529;-65
2021/05/30 09:40:56;;;;;;;4.57;3.23;;;19.60;87.20;;;;;;5072372;28;20458;-64
2021/05/30 09:43:24;;;;;;;3.90;3.10;;;19.80;89.20;;;;;;5072732;28;20439;-65
2021/05/30 09:46:09;;;;;;;4.63;3.30;;;19.90;84.50;;;;;;5072589;28;20490;-65
2021/05/30 09:48:38;;;;;;;4.30;3.40;;;20.10;89.50;;;;;;5072743;28;20493;-65
2021/05/30 09:51:37;;;;;;;5.07;3.13;;;20.50;84.40;;;;;;5072574;28;20471;-66
2021/05/30 09:54:06;;;;;;;3.97;3.03;;;20.70;76.80;;;;;;5072603;28;20550;-64
2021/05/30 09:56:35;;;;;;;5.60;3.90;;;20.80;80.50;;;;;;5072231;28;20530;-64
2021/05/30 09:59:04;;;;;;;3.90;3.10;;;21.30;81.90;;;;;;5071984;28;20454;-64
2021/05/30 10:01:50;;;;;;;4.40;2.70;;;22.20;82.40;;;;;;5072115;28;20513;-64
2021/05/30 10:04:17;;;;;;;3.83;2.80;;;23.00;78.80;;;;;;5072471;28;20443;-64
2021/05/30 10:06:44;;;;;;;3.90;3.17;;;23.10;73.20;;;;;;5072197;28;20485;-65
2021/05/30 10:09:12;;;;;;;4.17;3.10;;;23.20;72.20;;;;;;5072182;28;20490;-64
2021/05/30 10:11:40;;;;;;;3.43;3.03;;;23.50;73.30;;;;;;5072341;28;21010;-65
2021/05/30 10:14:06;;;;;;;3.50;2.73;;;23.80;68.60;;;;;;5072264;28;20961;-64
2021/05/30 10:16:34;;;;;;;4.27;3.87;;;23.80;72.50;;;;;;5072147;28;20508;-65
2021/05/30 10:19:07;;;;;;;4.10;3.03;;;23.80;66.20;;;;;;5071339;28;20957;-64
2021/05/30 10:21:35;;;;;;;3.50;3.00;;;24.20;70.70;;;;;;5071527;28;21058;-65
2021/05/30 10:24:02;;;;;;;3.50;3.10;;;25.20;68.50;;;;;;5071682;28;20458;-65
2021/05/30 10:26:29;;;;;;;4.00;3.30;;;25.80;64.00;;;;;;5071337;28;20589;-65
2021/05/30 10:28:58;;;;;;;4.70;3.10;;;26.00;63.90;;;;;;5071292;28;20461;-65
2021/05/30 10:31:27;;;;;;;4.80;4.07;;;25.70;60.90;;;;;;5071498;28;20459;-65
2021/05/30 10:34:20;;;;;;;7.43;3.40;;;25.80;61.60;;;;;;5071216;28;20606;-65
2021/05/30 10:37:25;;;;;;;4.50;3.30;;;26.40;59.70;;;;;;5071520;28;20845;-65
2021/05/30 10:39:53;;;;;;;4.07;3.00;;;27.30;58.40;;;;;;5070970;28;20959;-65
2021/05/30 10:42:23;;;;;;;3.53;2.73;;;27.90;55.40;;;;;;5071329;28;20458;-65
2021/05/30 10:44:55;;;;;;;3.17;2.80;;;27.80;54.40;;;;;;5070763;28;20871;-64
2021/05/30 10:48:01;;;;;;;4.43;2.87;;;26.10;52.90;;;;;;5070670;28;20572;-64
2021/05/30 10:50:34;;;;;;;4.60;2.90;;;23.40;53.60;;;;;;5070998;28;20557;-64
2021/05/30 10:53:00;;;;;;;3.00;2.40;;;21.80;58.00;;;;;;5071513;28;20520;-64
2021/05/30 10:55:29;;;;;;;4.00;2.67;;;22.20;58.30;;;;;;5071518;28;20482;-63
2021/05/30 10:57:56;;;;;;;7.20;3.13;;;21.80;55.40;;;;;;5071536;28;20453;-64
2021/05/30 11:00:35;;;;;;;4.90;3.10;;;21.00;57.50;;;;;;5071061;28;20561;-64
2021/05/30 11:03:07;;;;;;;5.87;3.10;;;20.20;58.50;;;;;;5071213;28;20457;-64
2021/05/30 11:05:47;;;;;;;4.07;3.10;;;19.70;59.20;;;;;;5070702;28;20443;-64
2021/05/30 11:08:51;;;;;;;3.40;3.10;;;20.30;69.10;;;;;;5071609;28;20434;-64
2021/05/30 11:11:19;;;;;;;4.03;2.83;;;21.50;64.70;;;;;;5070830;28;20546;-64
2021/05/30 11:13:51;;;;;;;4.03;3.00;;;21.70;60.90;;;;;;5070188;28;20443;-64
2021/05/30 11:16:18;;;;;;;6.63;3.20;;;20.80;60.30;;;;;;5070159;28;20530;-64
2021/05/30 11:18:44;;;;;;;3.87;3.30;;;20.90;61.80;;;;;;5070815;28;20866;-64
2021/05/30 11:21:13;;;;;;;3.57;3.07;;;20.20;62.00;;;;;;5070258;28;20519;-63
2021/05/30 11:23:40;;;;;;;4.40;3.00;;;20.40;64.30;;;;;;5070654;28;20443;-64
2021/05/30 11:26:10;;;;;;;4.53;2.93;;;20.50;63.70;;;;;;5070382;28;20477;-64
2021/05/30 11:28:39;;;;;;;4.23;3.00;;;20.90;65.40;;;;;;5070469;28;20507;-64
2021/05/30 11:31:08;;;;;;;4.40;3.03;;;21.60;62.40;;;;;;5069909;28;20471;-64
2021/05/30 11:33:41;;;;;;;4.83;3.30;;;22.30;59.70;;;;;;5070597;28;20439;-64
2021/05/30 11:36:26;;;;;;;3.50;2.83;;;23.20;63.70;;;;;;5070453;28;20447;-64
2021/05/30 11:38:55;;;;;;;4.60;3.20;;;24.30;62.20;;;;;;5066915;28;20447;-64
2021/05/30 11:41:28;;;;;;;2.93;2.20;;;25.40;59.10;;;;;;5070069;28;20870;-65
2021/05/30 11:44:01;;;;;;;3.17;2.60;;;26.30;58.40;;;;;;5070210;28;20968;-64
2021/05/30 11:46:29;;;;;;;4.20;2.77;;;27.10;54.60;;;;;;5069388;28;21001;-65
2021/05/30 11:49:11;;;;;;;3.50;3.10;;;26.20;50.70;;;;;;5069989;28;20542;-63
2021/05/30 11:51:46;;;;;;;3.30;2.60;;;25.00;54.00;;;;;;5070017;28;20469;-65
2021/05/30 11:54:12;;;;;;;3.80;2.90;;;25.70;55.20;;;;;;5070441;28;20449;-64
2021/05/30 11:56:39;;;;;;;3.77;2.60;;;26.00;55.70;;;;;;5070142;28;20435;-66
2021/05/30 11:59:06;;;;;;;3.00;2.70;;;26.50;54.60;;;;;;5069747;28;21156;-64
2021/05/30 12:01:49;;;;;;;3.93;2.33;;;26.70;53.50;;;;;;5069973;28;20860;-65
2021/05/30 12:04:22;;;;;;;4.00;3.20;;;27.00;50.70;;;;;;5067706;28;21034;-64
2021/05/30 12:06:49;;;;;;;3.50;2.60;;;26.40;48.40;;;;;;5070450;28;20482;-65
2021/05/30 12:09:15;;;;;;;3.80;3.20;;;26.20;51.30;;;;;;5070058;28;20538;-64
2021/05/30 12:11:42;;;;;;;3.90;2.90;;;26.70;54.20;;;;;;5069946;28;20489;-64
2021/05/30 12:14:09;;;;;;;3.83;2.40;;;27.30;51.00;;;;;;5070191;28;20450;-65
2021/05/30 12:16:36;;;;;;;4.13;3.00;;;27.70;50.30;;;;;;5069721;28;20490;-65
2021/05/30 12:19:04;;;;;;;3.80;3.00;;;28.10;49.60;;;;;;5069320;28;20962;-65
2021/05/30 12:21:39;;;;;;;3.70;2.53;;;28.70;50.90;;;;;;5069516;28;20516;-64
2021/05/30 12:24:06;;;;;;;4.03;2.90;;;28.60;50.90;;;;;;5069821;28;20451;-64
2021/05/30 12:26:33;;;;;;;3.63;3.20;;;27.40;48.20;;;;;;5069666;28;20475;-64
2021/05/30 12:29:00;;;;;;;3.60;3.10;;;26.50;49.30;;;;;;5069860;28;20532;-64
2021/05/30 12:31:26;;;;;;;4.17;3.43;;;26.30;54.00;;;;;;5069436;28;20506;-63
2021/05/30 12:33:55;;;;;;;4.63;3.03;;;25.80;53.60;;;;;;5069969;28;20521;-64
2021/05/30 12:36:37;;;;;;;3.53;3.03;;;25.30;51.80;;;;;;5069902;28;20447;-64
2021/05/30 12:39:09;;;;;;;3.47;2.63;;;25.80;52.60;;;;;;5069482;28;21040;-64
2021/05/30 12:41:39;;;;;;;4.30;3.07;;;26.10;50.30;;;;;;5069977;28;20474;-65
2021/05/30 12:44:08;;;;;;;5.40;4.40;;;26.20;51.90;;;;;;5069731;28;20447;-64
2021/05/30 12:46:35;;;;;;;5.10;3.13;;;26.50;52.70;;;;;;5069640;28;20518;-64
2021/05/30 12:49:13;;;;;;;4.30;3.23;;;26.40;49.80;;;;;;5069681;28;20937;-65
2021/05/30 12:51:55;;;;;;;4.30;3.30;;;24.40;55.60;;;;;;5069802;28;21003;-64
2021/05/30 12:54:22;;;;;;;5.37;3.90;;;23.40;55.50;;;;;;5069766;28;20443;-64
2021/05/30 12:56:51;;;;;;;4.17;3.77;;;22.70;57.80;;;;;;5070199;28;20447;-64
2021/05/30 12:59:18;;;;;;;6.23;3.93;;;22.70;59.10;;;;;;5073410;28;20442;-64